Colombo Express — DIHC — position and weather

sailwx.info

Track history (hours):
 
Tides and Currents Weather Stations Pressure Air Temp Water Temp Dewpoint Dewpoint Depression Visibility Wind Speed Wind Dir Waves Ship Positions

Colombo Express

Last reported at 2016-Oct-01 04:08 UTC. Time now 2016-Oct-01 05:00 UTC.
Position N 50°55' W 001°28'.

Length 335.5 m; beam 42.8 m; draft 14.6 m.

Type: Ship. MMSI: 211433000.

Date/timePositionNaut miles runAvg speedWind from/ knotsBaromVisibWave heightAir tempDewpointWater temp
2016-Oct-01 04:08N 50°55' W 001°28'0 0.0
2016-Oct-01 03:32N 50°55' W 001°28'0 0.0
2016-Oct-01 00:30N 50°55' W 001°28'0 0.0
2016-Sep-30 22:16N 50°55' W 001°28'9 5.3
2016-Sep-30 20:34N 50°48' W 001°18'3913.2
2016-Sep-30 17:33N 50°33' W 000°20'1817.8
2016-Sep-30 16:33N 50°35' E 000°07'4418.5
2016-Sep-30 14:11N 50°52' E 001°11'1016.9
2016-Sep-30 13:33N 50°59' E 001°24'4916.4
2016-Sep-30 10:33N 51°38' E 002°13'6616.4
2016-Sep-30 06:33N 52°02' E 003°51'7 2.3
2016-Sep-30 03:32N 51°57' E 003°59'0 0.0
2016-Sep-30 02:31N 51°57' E 003°59'0 0.0
2016-Sep-29 23:31N 51°57' E 003°59'0 0.0
2016-Sep-29 21:32N 51°57' E 003°59'0 0.0
2016-Sep-29 20:32N 51°57' E 003°59'0 0.0
2016-Sep-29 19:32N 51°57' E 003°59'0 0.0
2016-Sep-29 16:31N 51°57' E 003°59'0 0.0
2016-Sep-29 15:33N 51°57' E 003°59'0 0.0
2016-Sep-29 14:33N 51°57' E 003°59'0 0.0
2016-Sep-29 13:33N 51°57' E 003°59'0 0.0
2016-Sep-29 08:33N 51°57' E 003°59'0 0.0
2016-Sep-29 07:33N 51°57' E 003°59'0 0.0
2016-Sep-29 00:33N 51°57' E 003°59'0 0.0
2016-Sep-28 21:32N 51°57' E 003°59'0 0.0
2016-Sep-28 19:34N 51°57' E 003°59'7 2.5
2016-Sep-28 16:34N 52°01' E 003°49'9 9.3
2016-Sep-28 15:33N 52°10' E 003°46'5116.8
2016-Sep-28 12:32N 52°60' E 004°04'6917.5
2016-Sep-28 08:33N 53°42' E 005°36'8517.0
2016-Sep-28 03:33N 54°02' E 007°57'1615.9
2016-Sep-28 02:33N 53°59' E 008°23'1615.7
2016-Sep-28 01:33N 53°51' E 008°46'2211.1
2016-Sep-27 23:33N 53°47' E 009°23'26 6.4
2016-Sep-27 19:31N 53°30' E 009°56'0 0.0
2016-Sep-27 14:31N 53°31' E 009°56'0 0.0
2016-Sep-27 13:32N 53°30' E 009°56'0 0.0
2016-Sep-27 10:32N 53°30' E 009°56'0 0.0
2016-Sep-27 00:31N 53°30' E 009°56'0 0.0
2016-Sep-26 20:33N 53°30' E 009°56'0 0.0
2016-Sep-26 19:33N 53°30' E 009°56'0 0.0
2016-Sep-26 15:33N 53°31' E 009°56'0 0.0
2016-Sep-26 13:33N 53°30' E 009°56'0 0.0
2016-Sep-26 11:33N 53°30' E 009°56'3010.1
2016-Sep-26 08:34N 53°51' E 009°19'7211.9
2016-Sep-26 02:34N 53°53' E 007°17'1717.1
2016-Sep-26 01:33N 53°49' E 006°49'1717.1
2016-Sep-26 00:34N 53°45' E 006°21'5117.0
2016-Sep-25 21:33N 53°29' E 004°60'6716.6
2016-Sep-25 17:29N 52°36' E 003°50'1617.2
2016-Sep-25 16:34N 52°23' E 003°34'6817.0
2016-Sep-25 12:33N 51°34' E 002°18'1817.5
2016-Sep-25 11:34N 51°21' E 001°59'1817.9
2016-Sep-25 10:33N 51°07' E 001°42'1918.7
2016-Sep-25 09:34N 50°51' E 001°26'9118.1
2016-Sep-25 04:34N 49°43' W 000°08'18 4.5
2016-Sep-25 00:31N 49°28' E 000°09'0 0.0
2016-Sep-24 22:32N 49°28' E 000°09'0 0.0
2016-Sep-24 21:31N 49°28' E 000°09'0 0.0
2016-Sep-24 19:31N 49°28' E 000°09'0 0.0
2016-Sep-24 18:31N 49°28' E 000°09'0 0.0
2016-Sep-24 17:31N 49°28' E 000°09'0 0.0
2016-Sep-24 16:31N 49°28' E 000°09'0 0.0
2016-Sep-24 14:31N 49°28' E 000°09'0 0.0
2016-Sep-24 12:32N 49°28' E 000°09'17 8.4
2016-Sep-24 10:34N 49°34' W 000°15'1818.3
2016-Sep-24 09:34N 49°41' W 000°41'9916.5
2016-Sep-24 03:34N 49°45' W 003°14'1716.8
2016-Sep-24 02:34N 49°40' W 003°39'1717.2
2016-Sep-24 01:33N 49°37' W 004°05'1616.6
2016-Sep-24 00:33N 49°33' W 004°30'8416.6
2016-Sep-23 19:28N 49°14' W 006°36'  
Track history (hours):
 
Tides and Currents Weather Stations Pressure Air Temp Water Temp Dewpoint Dewpoint Depression Visibility Wind Speed Wind Dir Waves Ship Positions

Colombo Express

Last reported at 2016-Oct-01 04:08 UTC. Time now 2016-Oct-01 05:00 UTC.
Position N 50°55' W 001°28'.

Length 335.5 m; beam 42.8 m; draft 14.6 m.

Type: Ship. MMSI: 211433000.

Date/timePositionNaut miles runAvg speedWind from/ knotsBaromVisibWave heightAir tempDewpointWater temp
2016-Oct-01 04:08N 50°55' W 001°28'0 0.0
2016-Oct-01 03:32N 50°55' W 001°28'0 0.0
2016-Oct-01 00:30N 50°55' W 001°28'0 0.0
2016-Sep-30 22:16N 50°55' W 001°28'9 5.3
2016-Sep-30 20:34N 50°48' W 001°18'3913.2
2016-Sep-30 17:33N 50°33' W 000°20'1817.8
2016-Sep-30 16:33N 50°35' E 000°07'4418.5
2016-Sep-30 14:11N 50°52' E 001°11'1016.9
2016-Sep-30 13:33N 50°59' E 001°24'4916.4
2016-Sep-30 10:33N 51°38' E 002°13'6616.4
2016-Sep-30 06:33N 52°02' E 003°51'7 2.3
2016-Sep-30 03:32N 51°57' E 003°59'0 0.0
2016-Sep-30 02:31N 51°57' E 003°59'0 0.0
2016-Sep-29 23:31N 51°57' E 003°59'0 0.0
2016-Sep-29 21:32N 51°57' E 003°59'0 0.0
2016-Sep-29 20:32N 51°57' E 003°59'0 0.0
2016-Sep-29 19:32N 51°57' E 003°59'0 0.0
2016-Sep-29 16:31N 51°57' E 003°59'0 0.0
2016-Sep-29 15:33N 51°57' E 003°59'0 0.0
2016-Sep-29 14:33N 51°57' E 003°59'0 0.0
2016-Sep-29 13:33N 51°57' E 003°59'0 0.0
2016-Sep-29 08:33N 51°57' E 003°59'0 0.0
2016-Sep-29 07:33N 51°57' E 003°59'0 0.0
2016-Sep-29 00:33N 51°57' E 003°59'0 0.0
2016-Sep-28 21:32N 51°57' E 003°59'0 0.0
2016-Sep-28 19:34N 51°57' E 003°59'7 2.5
2016-Sep-28 16:34N 52°01' E 003°49'9 9.3
2016-Sep-28 15:33N 52°10' E 003°46'5116.8
2016-Sep-28 12:32N 52°60' E 004°04'6917.5
2016-Sep-28 08:33N 53°42' E 005°36'8517.0
2016-Sep-28 03:33N 54°02' E 007°57'1615.9
2016-Sep-28 02:33N 53°59' E 008°23'1615.7
2016-Sep-28 01:33N 53°51' E 008°46'2211.1
2016-Sep-27 23:33N 53°47' E 009°23'26 6.4
2016-Sep-27 19:31N 53°30' E 009°56'0 0.0
2016-Sep-27 14:31N 53°31' E 009°56'0 0.0
2016-Sep-27 13:32N 53°30' E 009°56'0 0.0
2016-Sep-27 10:32N 53°30' E 009°56'0 0.0
2016-Sep-27 00:31N 53°30' E 009°56'0 0.0
2016-Sep-26 20:33N 53°30' E 009°56'0 0.0
2016-Sep-26 19:33N 53°30' E 009°56'0 0.0
2016-Sep-26 15:33N 53°31' E 009°56'0 0.0
2016-Sep-26 13:33N 53°30' E 009°56'0 0.0
2016-Sep-26 11:33N 53°30' E 009°56'3010.1
2016-Sep-26 08:34N 53°51' E 009°19'7211.9
2016-Sep-26 02:34N 53°53' E 007°17'1717.1
2016-Sep-26 01:33N 53°49' E 006°49'1717.1
2016-Sep-26 00:34N 53°45' E 006°21'5117.0
2016-Sep-25 21:33N 53°29' E 004°60'6716.6
2016-Sep-25 17:29N 52°36' E 003°50'1617.2
2016-Sep-25 16:34N 52°23' E 003°34'6817.0
2016-Sep-25 12:33N 51°34' E 002°18'1817.5
2016-Sep-25 11:34N 51°21' E 001°59'1817.9
2016-Sep-25 10:33N 51°07' E 001°42'1918.7
2016-Sep-25 09:34N 50°51' E 001°26'9118.1
2016-Sep-25 04:34N 49°43' W 000°08'18 4.5
2016-Sep-25 00:31N 49°28' E 000°09'0 0.0
2016-Sep-24 22:32N 49°28' E 000°09'0 0.0
2016-Sep-24 21:31N 49°28' E 000°09'0 0.0
2016-Sep-24 19:31N 49°28' E 000°09'0 0.0
2016-Sep-24 18:31N 49°28' E 000°09'0 0.0
2016-Sep-24 17:31N 49°28' E 000°09'0 0.0
2016-Sep-24 16:31N 49°28' E 000°09'0 0.0
2016-Sep-24 14:31N 49°28' E 000°09'0 0.0
2016-Sep-24 12:32N 49°28' E 000°09'17 8.4
2016-Sep-24 10:34N 49°34' W 000°15'1818.3
2016-Sep-24 09:34N 49°41' W 000°41'9916.5
2016-Sep-24 03:34N 49°45' W 003°14'1716.8
2016-Sep-24 02:34N 49°40' W 003°39'1717.2
2016-Sep-24 01:33N 49°37' W 004°05'1616.6
2016-Sep-24 00:33N 49°33' W 004°30'8416.6
2016-Sep-23 19:28N 49°14' W 006°36'  

Dump ship's entire track history